createdAt,value
2019-03-22T00:00:35.213Z,8.40
2019-03-22T00:03:04.719Z,6.40
2019-03-22T00:05:34.140Z,6.40
2019-03-22T00:08:03.833Z,6.70
2019-03-22T00:10:33.265Z,7.43
2019-03-22T00:13:02.710Z,7.27
2019-03-22T00:15:32.147Z,6.60
2019-03-22T00:18:01.590Z,7.50
2019-03-22T00:20:31.023Z,9.77
2019-03-22T00:23:00.455Z,7.70
2019-03-22T00:25:30.458Z,7.83
2019-03-22T00:27:59.894Z,14.20
2019-03-22T00:30:29.343Z,6.83
2019-03-22T00:32:58.782Z,9.77
2019-03-22T00:35:28.212Z,8.07
2019-03-22T00:37:57.644Z,7.07
2019-03-22T00:40:27.087Z,8.20
2019-03-22T00:42:56.886Z,9.97
2019-03-22T00:45:26.323Z,7.57
2019-03-22T00:47:55.759Z,9.17
2019-03-22T00:50:25.199Z,9.47
2019-03-22T00:52:54.632Z,8.33
2019-03-22T00:55:24.081Z,9.10
2019-03-22T00:57:53.514Z,9.03
2019-03-22T01:00:22.951Z,7.63
2019-03-22T01:02:52.397Z,7.93
2019-03-22T01:05:21.839Z,11.27
2019-03-22T01:07:51.343Z,8.60
2019-03-22T01:10:20.787Z,7.90
2019-03-22T01:12:50.213Z,8.37
2019-03-22T01:15:19.665Z,6.47
2019-03-22T01:17:49.099Z,10.57
2019-03-22T01:20:18.557Z,7.37
2019-03-22T01:22:47.979Z,9.37
2019-03-22T01:25:17.423Z,9.30
2019-03-22T01:27:46.853Z,9.13
2019-03-22T01:30:18.110Z,8.70
2019-03-22T01:32:47.544Z,6.57
2019-03-22T01:35:17.281Z,7.67
2019-03-22T01:37:46.719Z,10.20
2019-03-22T01:40:16.799Z,11.53
2019-03-22T01:42:46.240Z,10.53
2019-03-22T01:45:17.426Z,8.07
2019-03-22T01:47:46.866Z,10.80
2019-03-22T01:50:18.131Z,15.23
2019-03-22T01:52:47.636Z,6.97
2019-03-22T01:55:17.060Z,7.57
2019-03-22T01:57:52.916Z,9.03
2019-03-22T02:00:18.962Z,8.97
2019-03-22T02:02:48.379Z,10.03
2019-03-22T02:05:17.901Z,7.23
2019-03-22T02:07:47.320Z,12.70
2019-03-22T02:10:18.554Z,7.30
2019-03-22T02:12:47.977Z,8.07
2019-03-22T02:15:18.292Z,8.60
2019-03-22T02:17:47.795Z,7.83
2019-03-22T02:20:18.768Z,8.67
2019-03-22T02:22:48.208Z,10.50
2019-03-22T02:25:17.709Z,9.97
2019-03-22T02:27:47.454Z,5.80
2019-03-22T02:30:18.134Z,8.47
2019-03-22T02:32:47.642Z,7.70
2019-03-22T02:35:28.521Z,7.93
2019-03-22T02:37:48.231Z,8.40
2019-03-22T02:40:17.938Z,9.33
2019-03-22T02:42:47.374Z,9.20
2019-03-22T02:45:17.388Z,7.00
2019-03-22T02:47:46.845Z,6.93
2019-03-22T02:50:19.557Z,11.00
2019-03-22T02:52:47.570Z,8.93
2019-03-22T02:55:17.266Z,7.63
2019-03-22T02:57:46.813Z,6.73
2019-03-22T03:00:18.141Z,7.50
2019-03-22T03:02:47.600Z,7.80
2019-03-22T03:05:17.172Z,9.20
2019-03-22T03:07:46.656Z,7.07
2019-03-22T03:10:16.985Z,8.40
2019-03-22T03:12:46.514Z,8.57
2019-03-22T03:15:19.745Z,7.83
2019-03-22T03:17:49.470Z,7.40
2019-03-22T03:20:20.454Z,10.63
2019-03-22T03:22:49.904Z,9.67
2019-03-22T03:25:19.507Z,9.07
2019-03-22T03:27:49.026Z,9.00
2019-03-22T03:30:22.535Z,7.80
2019-03-22T03:32:51.987Z,6.97
2019-03-22T03:35:21.408Z,8.00
2019-03-22T03:37:50.869Z,7.13
2019-03-22T03:40:20.393Z,6.60
2019-03-22T03:42:49.806Z,8.43
2019-03-22T03:45:36.812Z,8.93
2019-03-22T03:48:11.117Z,6.67
2019-03-22T03:50:40.826Z,8.73
2019-03-22T03:53:10.343Z,9.53
2019-03-22T03:55:39.780Z,9.37
2019-03-22T03:58:09.304Z,6.97
2019-03-22T04:00:38.736Z,7.07
2019-03-22T04:03:08.188Z,6.10
2019-03-22T04:05:37.673Z,8.57
2019-03-22T04:08:07.111Z,7.33
2019-03-22T04:10:37.054Z,7.77
2019-03-22T04:13:06.500Z,7.07
2019-03-22T04:15:35.939Z,6.77
2019-03-22T04:18:05.450Z,8.40
2019-03-22T04:20:34.876Z,7.50
2019-03-22T04:23:04.328Z,7.53
2019-03-22T04:25:33.759Z,6.67
2019-03-22T04:28:03.201Z,7.10
2019-03-22T04:30:32.652Z,10.23
2019-03-22T04:33:02.156Z,6.23
2019-03-22T04:35:31.587Z,5.80
2019-03-22T04:38:01.025Z,6.87
2019-03-22T04:40:31.001Z,6.87
2019-03-22T04:43:00.501Z,9.60
2019-03-22T04:45:31.978Z,5.93
2019-03-22T04:48:11.599Z,6.97
2019-03-22T04:50:42.554Z,6.90
2019-03-22T04:53:16.771Z,7.50
2019-03-22T04:55:50.777Z,6.97
2019-03-22T04:58:22.467Z,7.73
2019-03-22T05:00:53.941Z,9.37
2019-03-22T05:03:25.537Z,8.97
2019-03-22T05:05:57.711Z,8.90
2019-03-22T05:08:29.355Z,12.07
2019-03-22T05:11:01.825Z,7.63
2019-03-22T05:13:33.018Z,7.77
2019-03-22T05:16:03.361Z,7.47
2019-03-22T05:18:34.417Z,7.27
2019-03-22T05:21:05.291Z,14.53
2019-03-22T05:23:34.876Z,7.43
2019-03-22T05:26:05.396Z,7.23
2019-03-22T05:28:35.279Z,7.97
2019-03-22T05:31:12.200Z,10.73
2019-03-22T05:33:41.701Z,8.23
2019-03-22T05:36:11.128Z,9.53
2019-03-22T05:38:40.601Z,7.50
2019-03-22T05:41:10.010Z,12.90
2019-03-22T05:43:39.453Z,9.20
2019-03-22T05:46:08.889Z,7.60
2019-03-22T05:48:38.339Z,8.27
2019-03-22T05:51:08.038Z,8.47
2019-03-22T05:53:37.501Z,8.17
2019-03-22T05:56:06.929Z,11.43
2019-03-22T05:58:36.382Z,9.87
2019-03-22T06:01:05.840Z,8.13
2019-03-22T06:03:35.268Z,7.93
2019-03-22T06:06:04.713Z,8.03
2019-03-22T06:08:34.151Z,11.30
2019-03-22T06:11:03.585Z,9.97
2019-03-22T06:13:33.017Z,7.53
2019-03-22T06:16:02.479Z,10.03
2019-03-22T06:18:31.924Z,6.63
2019-03-22T06:21:01.374Z,9.83
2019-03-22T06:23:30.805Z,11.17
2019-03-22T06:26:00.248Z,10.20
2019-03-22T06:28:30.027Z,7.17
2019-03-22T06:30:59.483Z,8.50
2019-03-22T06:33:28.911Z,7.37
2019-03-22T06:35:58.352Z,8.23
2019-03-22T06:38:27.792Z,9.83
2019-03-22T06:40:57.235Z,9.00
2019-03-22T06:43:26.673Z,11.70
2019-03-22T06:45:56.122Z,7.17
2019-03-22T06:48:25.561Z,10.37
2019-03-22T06:50:54.998Z,8.93
2019-03-22T06:53:24.432Z,10.67
2019-03-22T06:55:53.872Z,14.00
2019-03-22T06:58:24.332Z,9.37
2019-03-22T07:00:53.927Z,10.60
2019-03-22T07:03:23.359Z,8.47
2019-03-22T07:05:52.817Z,9.80
2019-03-22T07:08:22.254Z,11.53
2019-03-22T07:10:51.705Z,11.30
2019-03-22T07:13:21.457Z,8.43
2019-03-22T07:15:50.905Z,11.13
2019-03-22T07:18:20.681Z,8.00
2019-03-22T07:20:50.146Z,11.77
2019-03-22T07:23:19.591Z,10.87
2019-03-22T07:25:49.129Z,8.20
2019-03-22T07:28:18.609Z,7.60
2019-03-22T07:30:48.057Z,9.60
2019-03-22T07:33:17.504Z,8.33
2019-03-22T07:35:46.937Z,9.47
2019-03-22T07:38:16.628Z,11.53
2019-03-22T07:40:46.078Z,10.20
2019-03-22T07:43:15.565Z,10.77
2019-03-22T07:45:45.001Z,11.37
2019-03-22T07:48:14.433Z,10.10
2019-03-22T07:50:43.885Z,7.43
2019-03-22T07:53:13.323Z,9.10
2019-03-22T07:55:42.840Z,9.67
2019-03-22T07:58:12.270Z,11.80
2019-03-22T08:00:41.788Z,10.50
2019-03-22T08:03:11.234Z,10.97
2019-03-22T08:05:50.716Z,10.97
2019-03-22T08:08:11.835Z,9.63
2019-03-22T08:10:41.276Z,9.63
2019-03-22T08:13:10.780Z,11.07
2019-03-22T08:15:40.223Z,9.83
2019-03-22T08:18:09.661Z,12.97
2019-03-22T08:20:39.178Z,8.30
2019-03-22T08:23:22.930Z,11.10
2019-03-22T08:25:52.555Z,11.67
2019-03-22T08:28:21.984Z,12.63
2019-03-22T08:30:51.432Z,10.27
2019-03-22T08:33:20.936Z,12.77
2019-03-22T08:35:50.389Z,10.90
2019-03-22T08:38:19.845Z,13.13
2019-03-22T08:40:49.312Z,9.57
2019-03-22T08:43:18.740Z,11.57
2019-03-22T08:45:48.182Z,13.20
2019-03-22T08:48:17.613Z,12.10
2019-03-22T08:50:47.045Z,8.50
2019-03-22T08:53:16.536Z,12.73
2019-03-22T08:55:45.960Z,11.37
2019-03-22T08:58:18.294Z,11.43
2019-03-22T09:00:57.231Z,10.43
2019-03-22T09:03:17.892Z,12.77
2019-03-22T09:05:47.340Z,17.37
2019-03-22T09:08:16.790Z,10.97
2019-03-22T09:10:46.331Z,11.60
2019-03-22T09:13:15.788Z,12.33
2019-03-22T09:15:45.220Z,12.17
2019-03-22T09:18:15.651Z,15.77
2019-03-22T09:20:45.296Z,14.77
2019-03-22T09:23:14.755Z,13.00
2019-03-22T09:25:44.262Z,14.10
2019-03-22T09:28:13.710Z,13.57
2019-03-22T09:30:43.180Z,11.57
2019-03-22T09:33:13.457Z,12.47
2019-03-22T09:35:43.100Z,12.07
2019-03-22T09:38:13.546Z,14.47
2019-03-22T09:40:43.505Z,15.57
2019-03-22T09:43:12.894Z,12.07
2019-03-22T09:45:42.383Z,12.07
2019-03-22T09:48:11.787Z,11.70
2019-03-22T09:50:46.943Z,13.37
2019-03-22T09:53:16.446Z,13.53
2019-03-22T09:55:45.919Z,14.50
2019-03-22T09:58:17.217Z,12.73
2019-03-22T10:00:48.588Z,15.00
2019-03-22T10:03:17.877Z,12.80
2019-03-22T10:05:47.281Z,10.93
2019-03-22T10:08:16.733Z,12.30
2019-03-22T10:10:46.175Z,12.70
2019-03-22T10:13:15.673Z,16.67
2019-03-22T10:15:45.089Z,16.43
2019-03-22T10:18:14.552Z,13.20
2019-03-22T10:20:43.999Z,16.30
2019-03-22T10:23:13.498Z,15.67
2019-03-22T10:25:42.961Z,12.50
2019-03-22T10:28:12.399Z,13.90
2019-03-22T10:30:41.886Z,13.60
2019-03-22T10:33:22.169Z,13.90
2019-03-22T10:35:42.533Z,16.50
2019-03-22T10:38:16.509Z,15.07
2019-03-22T10:40:43.189Z,13.97
2019-03-22T10:43:12.652Z,13.03
2019-03-22T10:45:42.128Z,15.97
2019-03-22T10:48:11.598Z,20.77
2019-03-22T10:50:41.020Z,13.90
2019-03-22T10:53:10.562Z,15.80
2019-03-22T10:55:40.010Z,11.57
2019-03-22T10:58:20.310Z,17.10
2019-03-22T11:00:40.778Z,23.97
2019-03-22T11:03:10.252Z,18.70
2019-03-22T11:05:39.716Z,14.87
2019-03-22T11:08:09.435Z,18.20
2019-03-22T11:10:38.886Z,12.90
2019-03-22T11:13:08.340Z,13.63
2019-03-22T11:15:47.951Z,17.27
2019-03-22T11:18:09.284Z,12.13
2019-03-22T11:20:38.744Z,13.27
2019-03-22T11:23:08.203Z,13.53
2019-03-22T11:25:37.659Z,14.73
2019-03-22T11:28:07.105Z,14.80
2019-03-22T11:30:36.832Z,12.43
2019-03-22T11:33:06.687Z,16.07
2019-03-22T11:35:37.217Z,14.23
2019-03-22T11:38:06.849Z,12.77
2019-03-22T11:40:36.308Z,16.63
2019-03-22T11:43:08.801Z,14.13
2019-03-22T11:45:37.025Z,16.20
2019-03-22T11:48:06.536Z,12.60
2019-03-22T11:50:36.008Z,15.83
2019-03-22T11:53:05.906Z,22.77
2019-03-22T11:55:35.367Z,14.47
2019-03-22T11:58:04.888Z,14.20
2019-03-22T12:00:34.342Z,13.80
2019-03-22T12:03:04.055Z,12.57
2019-03-22T12:05:40.368Z,14.70
2019-03-22T12:08:04.816Z,13.47
2019-03-22T12:10:34.281Z,15.53
2019-03-22T12:13:03.725Z,16.17
2019-03-22T12:15:33.175Z,30.67
2019-03-22T12:18:02.623Z,25.00
2019-03-22T12:20:32.087Z,15.17
2019-03-22T12:23:01.549Z,16.30
2019-03-22T12:25:30.990Z,17.43
2019-03-22T12:28:00.439Z,14.47
2019-03-22T12:30:29.896Z,12.63
2019-03-22T12:32:59.363Z,13.00
2019-03-22T12:35:28.822Z,11.80
2019-03-22T12:37:58.253Z,13.00
2019-03-22T12:40:27.715Z,11.10
2019-03-22T12:42:57.156Z,10.03
2019-03-22T12:45:29.781Z,9.77
2019-03-22T12:47:59.247Z,8.93
2019-03-22T12:50:28.783Z,10.27
2019-03-22T12:52:58.223Z,12.27
2019-03-22T12:55:27.679Z,8.50
2019-03-22T12:57:59.365Z,8.50
2019-03-22T13:00:28.641Z,8.53
2019-03-22T13:02:58.378Z,9.50
2019-03-22T13:05:27.837Z,8.83
2019-03-22T13:07:57.258Z,9.70
2019-03-22T13:10:30.150Z,11.13
2019-03-22T13:12:59.608Z,10.13
2019-03-22T13:15:29.059Z,10.17
2019-03-22T13:17:58.497Z,9.17
2019-03-22T13:20:28.295Z,8.80
2019-03-22T13:22:57.735Z,13.83
2019-03-22T13:25:27.192Z,13.97
2019-03-22T13:27:56.636Z,8.07
2019-03-22T13:30:37.305Z,7.73
2019-03-22T13:33:07.093Z,7.90
2019-03-22T13:35:36.554Z,11.07
2019-03-22T13:38:06.063Z,8.33
2019-03-22T13:40:35.528Z,9.10
2019-03-22T13:43:04.977Z,12.47
2019-03-22T13:45:34.415Z,11.07
2019-03-22T13:48:03.860Z,7.97
2019-03-22T13:50:33.295Z,11.13
2019-03-22T13:53:02.755Z,7.00
2019-03-22T13:55:32.178Z,8.60
2019-03-22T13:58:01.630Z,8.33
2019-03-22T14:00:31.062Z,9.27
2019-03-22T14:03:02.956Z,9.83
2019-03-22T14:05:31.674Z,8.17
2019-03-22T14:08:01.155Z,7.70
2019-03-22T14:10:33.671Z,9.97
2019-03-22T14:13:05.827Z,9.40
2019-03-22T14:15:35.343Z,11.20
2019-03-22T14:18:05.261Z,9.00
2019-03-22T14:20:34.693Z,8.43
2019-03-22T14:23:05.041Z,10.40
2019-03-22T14:25:34.464Z,12.50
2019-03-22T14:28:03.916Z,11.97
2019-03-22T14:30:33.361Z,13.07
2019-03-22T14:33:12.585Z,13.83
2019-03-22T14:35:33.972Z,12.57
2019-03-22T14:38:03.423Z,11.77
2019-03-22T14:40:32.870Z,14.67
2019-03-22T14:43:02.335Z,12.50
2019-03-22T14:45:31.790Z,14.00
2019-03-22T14:48:01.243Z,15.37
2019-03-22T14:50:30.678Z,12.97
2019-03-22T14:53:00.146Z,13.83
2019-03-22T14:55:29.575Z,13.17
2019-03-22T14:57:59.019Z,15.17
2019-03-22T15:00:28.460Z,17.53
2019-03-22T15:02:57.906Z,17.10
2019-03-22T15:05:27.645Z,13.13
2019-03-22T15:07:57.360Z,12.97
2019-03-22T15:10:26.804Z,12.47
2019-03-22T15:12:56.251Z,14.00
2019-03-22T15:15:27.334Z,15.67
2019-03-22T15:18:01.137Z,13.80
2019-03-22T15:20:39.107Z,15.53
2019-03-22T15:23:19.283Z,16.73
2019-03-22T15:26:05.357Z,13.67
2019-03-22T15:28:52.720Z,15.13
2019-03-22T15:31:21.899Z,14.47
2019-03-22T15:33:58.428Z,16.40
2019-03-22T15:36:41.181Z,19.53
2019-03-22T15:39:21.791Z,15.67
2019-03-22T15:41:51.321Z,15.23
2019-03-22T15:44:20.920Z,14.33
2019-03-22T15:46:50.395Z,19.53
2019-03-22T15:49:19.850Z,17.20
2019-03-22T15:51:49.288Z,14.03
2019-03-22T15:54:18.737Z,15.07
2019-03-22T15:56:48.172Z,14.23
2019-03-22T15:59:17.623Z,14.75
2019-03-22T16:01:47.056Z,15.23
2019-03-22T16:04:18.619Z,12.23
2019-03-22T16:06:47.822Z,16.25
2019-03-22T16:09:17.282Z,15.05
2019-03-22T16:11:46.718Z,15.13
2019-03-22T16:14:16.176Z,19.92
2019-03-22T16:16:45.622Z,14.78
2019-03-22T16:19:15.077Z,15.05
2019-03-22T16:21:44.526Z,16.35
2019-03-22T16:24:14.310Z,17.47
2019-03-22T16:26:43.750Z,18.12
2019-03-22T16:29:13.200Z,14.83
2019-03-22T16:31:42.649Z,18.07
2019-03-22T16:34:12.106Z,16.13
2019-03-22T16:36:41.618Z,16.83
2019-03-22T16:39:11.055Z,20.20
2019-03-22T16:41:40.504Z,16.43
2019-03-22T16:44:09.957Z,20.07
2019-03-22T16:46:39.508Z,17.37
2019-03-22T16:49:08.906Z,14.90
2019-03-22T16:51:38.347Z,16.33
2019-03-22T16:54:07.800Z,18.47
2019-03-22T16:56:37.246Z,22.50
2019-03-22T16:59:06.686Z,15.27
2019-03-22T17:01:36.958Z,22.40
2019-03-22T17:04:06.423Z,16.17
2019-03-22T17:06:35.863Z,17.63
2019-03-22T17:09:07.058Z,17.27
2019-03-22T17:11:36.494Z,16.43
2019-03-22T17:14:05.943Z,22.57
2019-03-22T17:16:35.393Z,19.43
2019-03-22T17:19:04.858Z,20.27
2019-03-22T17:21:34.293Z,17.43
2019-03-22T17:24:03.783Z,15.53
2019-03-22T17:26:33.220Z,15.07
2019-03-22T17:29:02.678Z,16.00
2019-03-22T17:31:32.111Z,17.80
2019-03-22T17:34:01.563Z,21.87
2019-03-22T17:36:31.022Z,20.87
2019-03-22T17:39:00.462Z,15.77
2019-03-22T17:41:29.910Z,18.97
2019-03-22T17:43:59.363Z,16.57
2019-03-22T17:46:28.808Z,15.80
2019-03-22T17:48:58.260Z,20.87
2019-03-22T17:51:27.692Z,18.63
2019-03-22T17:53:57.152Z,17.83
2019-03-22T17:56:26.619Z,18.47
2019-03-22T17:58:56.064Z,19.83
2019-03-22T18:01:25.508Z,20.10
2019-03-22T18:03:55.265Z,18.77
2019-03-22T18:06:25.054Z,19.23
2019-03-22T18:08:54.554Z,27.67
2019-03-22T18:11:24.001Z,22.43
2019-03-22T18:13:53.639Z,20.73
2019-03-22T18:16:23.059Z,20.20
2019-03-22T18:18:52.874Z,24.87
2019-03-22T18:21:22.367Z,25.70
2019-03-22T18:23:51.906Z,20.80
2019-03-22T18:26:21.339Z,23.10
2019-03-22T18:28:50.783Z,22.07
2019-03-22T18:31:20.256Z,24.17
2019-03-22T18:33:49.697Z,19.00
2019-03-22T18:36:19.158Z,24.70
2019-03-22T18:38:48.601Z,22.63
2019-03-22T18:41:18.077Z,25.33
2019-03-22T18:43:47.491Z,22.37
2019-03-22T18:46:16.944Z,27.23
2019-03-22T18:48:46.389Z,22.60
2019-03-22T18:51:15.837Z,20.30
2019-03-22T18:53:45.286Z,21.73
2019-03-22T18:56:14.751Z,25.93
2019-03-22T18:58:44.194Z,19.67
2019-03-22T19:01:13.657Z,24.67
2019-03-22T19:03:43.100Z,22.23
2019-03-22T19:06:12.543Z,18.33
2019-03-22T19:08:41.991Z,22.73
2019-03-22T19:11:11.452Z,19.50
2019-03-22T19:13:40.894Z,21.73
2019-03-22T19:16:10.344Z,18.83
2019-03-22T19:18:39.780Z,26.07
2019-03-22T19:21:09.228Z,20.83
2019-03-22T19:23:38.668Z,19.37
2019-03-22T19:26:08.128Z,21.40
2019-03-22T19:28:37.567Z,18.97
2019-03-22T19:31:07.017Z,24.80
2019-03-22T19:33:36.452Z,19.37
2019-03-22T19:36:05.904Z,22.73
2019-03-22T19:38:35.341Z,22.23
2019-03-22T19:41:04.795Z,25.27
2019-03-22T19:43:34.532Z,24.63
2019-03-22T19:46:04.056Z,20.33
2019-03-22T19:48:33.494Z,27.80
2019-03-22T19:51:02.940Z,23.20
2019-03-22T19:53:32.396Z,20.63
2019-03-22T19:56:01.834Z,21.03
2019-03-22T19:58:31.276Z,18.80
2019-03-22T20:01:00.734Z,20.93
2019-03-22T20:03:30.177Z,23.13
2019-03-22T20:05:59.624Z,23.93
2019-03-22T20:08:29.074Z,20.80
2019-03-22T20:10:58.517Z,25.17
2019-03-22T20:13:27.958Z,22.00
2019-03-22T20:15:57.420Z,21.90
2019-03-22T20:18:26.848Z,22.07
2019-03-22T20:20:56.622Z,21.97
2019-03-22T20:23:26.060Z,23.47
2019-03-22T20:25:55.519Z,21.57
2019-03-22T20:28:24.969Z,25.47
2019-03-22T20:30:54.425Z,22.23
2019-03-22T20:33:23.866Z,19.17
2019-03-22T20:35:53.387Z,21.83
2019-03-22T20:38:22.826Z,23.87
2019-03-22T20:40:52.284Z,20.73
2019-03-22T20:43:21.717Z,19.27
2019-03-22T20:45:51.168Z,24.90
2019-03-22T20:48:20.883Z,18.57
2019-03-22T20:50:50.348Z,20.83
2019-03-22T20:53:20.112Z,18.50
2019-03-22T20:55:49.551Z,21.53
2019-03-22T20:58:19.000Z,21.30
2019-03-22T21:00:48.440Z,20.23
2019-03-22T21:03:17.884Z,19.77
2019-03-22T21:05:47.321Z,23.30
2019-03-22T21:08:16.768Z,18.57
2019-03-22T21:10:46.201Z,18.90
2019-03-22T21:13:15.654Z,19.70
2019-03-22T21:15:45.090Z,18.87
2019-03-22T21:18:14.533Z,21.33
2019-03-22T21:20:43.972Z,21.77
2019-03-22T21:23:13.420Z,18.53
2019-03-22T21:25:42.866Z,21.63
2019-03-22T21:28:12.314Z,22.27
2019-03-22T21:30:41.748Z,18.87
2019-03-22T21:33:11.191Z,21.30
2019-03-22T21:35:40.634Z,21.40
2019-03-22T21:38:11.156Z,18.53
2019-03-22T21:40:40.811Z,22.90
2019-03-22T21:43:10.260Z,20.93
2019-03-22T21:45:39.700Z,18.13
2019-03-22T21:48:09.144Z,25.80
2019-03-22T21:50:38.581Z,20.87
2019-03-22T21:53:08.033Z,21.67
2019-03-22T21:55:37.469Z,27.27
2019-03-22T21:58:06.915Z,26.70
2019-03-22T22:00:36.356Z,22.93
2019-03-22T22:03:05.947Z,19.07
2019-03-22T22:05:35.385Z,21.50
2019-03-22T22:08:05.095Z,23.90
2019-03-22T22:10:34.529Z,21.87
2019-03-22T22:13:03.974Z,23.00
2019-03-22T22:15:33.407Z,22.47
2019-03-22T22:18:02.852Z,20.40
2019-03-22T22:20:32.303Z,21.33
2019-03-22T22:23:01.748Z,17.83
2019-03-22T22:25:31.183Z,20.80
2019-03-22T22:28:00.634Z,18.10
2019-03-22T22:30:30.069Z,21.33
2019-03-22T22:32:59.525Z,20.90
2019-03-22T22:35:28.960Z,22.77
2019-03-22T22:37:58.394Z,22.07
2019-03-22T22:40:27.902Z,20.87
2019-03-22T22:42:57.339Z,20.37
2019-03-22T22:45:27.077Z,26.83
2019-03-22T22:47:56.520Z,18.53
2019-03-22T22:50:25.961Z,20.00
2019-03-22T22:52:55.418Z,19.03
2019-03-22T22:55:24.927Z,16.10
2019-03-22T22:57:54.404Z,18.20
2019-03-22T23:00:25.537Z,20.33
2019-03-22T23:02:55.149Z,25.63
2019-03-22T23:05:24.592Z,21.40
2019-03-22T23:07:54.033Z,22.33
2019-03-22T23:10:23.486Z,20.17
2019-03-22T23:12:52.925Z,20.43
2019-03-22T23:15:22.369Z,19.27
2019-03-22T23:17:51.804Z,20.87
2019-03-22T23:20:21.236Z,19.70
2019-03-22T23:22:50.666Z,22.10
2019-03-22T23:25:20.108Z,21.47
2019-03-22T23:27:49.823Z,19.53
2019-03-22T23:30:19.271Z,23.93
2019-03-22T23:32:48.715Z,18.70
2019-03-22T23:35:18.156Z,18.13
2019-03-22T23:37:47.597Z,18.50
2019-03-22T23:40:17.113Z,17.77
2019-03-22T23:42:46.552Z,20.07
2019-03-22T23:45:15.991Z,18.10
2019-03-22T23:47:45.427Z,23.60
2019-03-22T23:50:15.583Z,17.23
2019-03-22T23:52:45.018Z,20.70
2019-03-22T23:55:14.478Z,18.37
2019-03-22T23:57:43.904Z,22.70
